Time;durP1;ratioP1;P1;durP2;ratioP2;P2;SDS_P1;SDS_P2;PMS_P1;PMS_P2;Temp;Humidity;BMP_temperature;BMP_pressure;BME280_temperature;BME280_humidity;BME280_pressure;Samples;Min_cycle;Max_cycle;Signal;HPM_P1;HPM_P2
2022/10/17 00:00:22;;;;;;;;;;;9.90;99.90;;;;;;5070034;28;20032;-80
2022/10/17 00:02:48;;;;;;;;;;;9.90;99.90;;;;;;5071583;28;19913;-81
2022/10/17 00:05:13;;;;;;;;;;;9.90;99.90;;;;;;5069889;28;19970;-80
2022/10/17 00:07:39;;;;;;;;;;;9.90;99.90;;;;;;5068992;28;19921;-80
2022/10/17 00:10:05;;;;;;;;;;;9.90;99.90;;;;;;5071297;28;19925;-80
2022/10/17 00:12:31;;;;;;;;;;;9.90;99.90;;;;;;5070595;28;19919;-80
2022/10/17 00:14:56;;;;;;;;;;;9.90;99.90;;;;;;5071192;28;19917;-80
2022/10/17 00:17:22;;;;;;;;;;;9.90;99.90;;;;;;5050690;28;19917;-81
2022/10/17 00:19:47;;;;;;;;;;;9.80;99.90;;;;;;5067403;28;19916;-81
2022/10/17 00:22:13;;;;;;;;;;;9.80;99.90;;;;;;5067636;28;19984;-80
2022/10/17 00:24:38;;;;;;;;;;;9.80;99.90;;;;;;5064306;28;20481;-80
2022/10/17 00:27:04;;;;;;;;;;;9.70;99.90;;;;;;5071196;28;20374;-80
2022/10/17 00:29:29;;;;;;;;;;;9.70;99.90;;;;;;5053010;28;19927;-80
2022/10/17 00:31:55;;;;;;;;;;;9.80;99.90;;;;;;5066403;28;19921;-80
2022/10/17 00:34:21;;;;;;;;;;;9.80;99.90;;;;;;5049541;28;19917;-81
2022/10/17 00:36:46;;;;;;;;;;;9.70;99.90;;;;;;5071080;28;19924;-80
2022/10/17 00:39:12;;;;;;;;;;;9.80;99.90;;;;;;5070546;28;20045;-80
2022/10/17 00:41:38;;;;;;;;;;;9.80;99.90;;;;;;5069973;28;20019;-81
2022/10/17 00:44:04;;;;;;;;;;;9.80;99.90;;;;;;5070839;28;19923;-80
2022/10/17 00:46:31;;;;;;;;;;;9.70;99.90;;;;;;5067979;28;19932;-80
2022/10/17 00:48:59;;;;;;;;;;;9.80;99.90;;;;;;5050626;28;20341;-81
2022/10/17 00:51:45;;;;;;;;;;;10.10;99.90;;;;;;5070661;28;19912;-80
2022/10/17 00:54:11;;;;;;;;;;;10.30;99.90;;;;;;5067786;28;19923;-81
2022/10/17 00:56:39;;;;;;;;;;;10.40;99.90;;;;;;5070092;28;19924;-80
2022/10/17 00:59:05;;;;;;;;;;;10.30;99.90;;;;;;5071273;28;19928;-80
2022/10/17 01:01:31;;;;;;;;;;;10.20;99.90;;;;;;5065784;28;19995;-80
2022/10/17 01:03:57;;;;;;;;;;;10.00;99.90;;;;;;5051839;28;20019;-80
2022/10/17 01:06:22;;;;;;;;;;;9.90;99.90;;;;;;5068757;28;20444;-81
2022/10/17 01:08:48;;;;;;;;;;;9.90;99.90;;;;;;5052361;28;19927;-81
2022/10/17 01:11:16;;;;;;;;;;;9.80;99.90;;;;;;5070564;28;19925;-80
2022/10/17 01:13:45;;;;;;;;;;;9.80;99.90;;;;;;5069450;28;19912;-80
2022/10/17 01:16:15;;;;;;;;;;;9.70;99.90;;;;;;5066846;28;19923;-80
2022/10/17 01:19:03;;;;;;;;;;;9.60;99.90;;;;;;5066548;28;19923;-80
2022/10/17 01:21:28;;;;;;;;;;;9.60;99.90;;;;;;5068384;28;20046;-80
2022/10/17 01:24:06;;;;;;;;;;;9.60;99.90;;;;;;5049004;28;19951;-80
2022/10/17 01:26:32;;;;;;;;;;;9.60;99.90;;;;;;5067679;28;20429;-81
2022/10/17 01:29:06;;;;;;;;;;;9.60;99.90;;;;;;5069811;28;19919;-80
2022/10/17 01:31:54;;;;;;;;;;;9.50;99.90;;;;;;5066930;28;19999;-80
2022/10/17 01:34:40;;;;;;;;;;;9.50;99.90;;;;;;5065144;28;19912;-80
2022/10/17 01:37:23;;;;;;;;;;;9.60;99.90;;;;;;5070167;28;19950;-81
2022/10/17 01:39:55;;;;;;;;;;;9.60;99.90;;;;;;5051403;28;19917;-81
2022/10/17 01:42:23;;;;;;;;;;;9.50;99.90;;;;;;5066398;28;20016;-80
2022/10/17 01:44:55;;;;;;;;;;;9.50;99.90;;;;;;5065633;28;19969;-80
2022/10/17 01:47:24;;;;;;;;;;;9.50;99.90;;;;;;5068832;28;19932;-81
2022/10/17 01:49:51;;;;;;;;;;;9.50;99.90;;;;;;5068610;28;20427;-80
2022/10/17 01:52:16;;;;;;;;;;;9.50;99.90;;;;;;5069094;28;19921;-81
2022/10/17 01:54:47;;;;;;;;;;;9.50;99.90;;;;;;5069661;28;20169;-80
2022/10/17 01:57:33;;;;;;;;;;;9.50;99.90;;;;;;5051685;28;20016;-81
2022/10/17 02:00:01;;;;;;;;;;;9.40;99.90;;;;;;5034578;28;19924;-80
2022/10/17 02:02:32;;;;;;;;;;;9.30;99.90;;;;;;5065564;28;20003;-80
2022/10/17 02:05:00;;;;;;;;;;;9.30;99.90;;;;;;5050496;28;20039;-80
2022/10/17 02:07:25;;;;;;;;;;;9.40;99.90;;;;;;5069735;28;19916;-80
2022/10/17 02:09:51;;;;;;;;;;;9.40;99.90;;;;;;5061608;28;20405;-80
2022/10/17 02:12:35;;;;;;;;;;;9.30;99.90;;;;;;5061049;28;19921;-81
2022/10/17 02:15:19;;;;;;;;;;;9.40;99.90;;;;;;5061216;28;19962;-80
2022/10/17 02:18:14;;;;;;;;;;;9.40;99.90;;;;;;5059775;28;19999;-80
2022/10/17 02:20:46;;;;;;;;;;;9.30;99.90;;;;;;5018597;28;19930;-80
2022/10/17 02:23:20;;;;;;;;;;;9.30;99.90;;;;;;5079343;28;19923;-80
2022/10/17 02:26:08;;;;;;;;;;;9.20;99.90;;;;;;5053076;28;19935;-80
2022/10/17 02:28:37;;;;;;;;;;;9.20;99.90;;;;;;5070890;28;19962;-80
2022/10/17 02:31:02;;;;;;;;;;;9.10;99.90;;;;;;5059016;28;20378;-80
2022/10/17 02:33:48;;;;;;;;;;;9.30;99.90;;;;;;5066231;28;19959;-80
2022/10/17 02:36:17;;;;;;;;;;;9.20;99.90;;;;;;5056894;28;19913;-81
2022/10/17 02:38:44;;;;;;;;;;;9.20;99.90;;;;;;5063075;28;20431;-80
2022/10/17 02:41:11;;;;;;;;;;;9.00;99.90;;;;;;5051195;28;19931;-80
2022/10/17 02:43:37;;;;;;;;;;;9.10;99.90;;;;;;5057389;28;19917;-81
2022/10/17 02:46:03;;;;;;;;;;;9.10;99.90;;;;;;5057372;28;19921;-81
2022/10/17 02:48:44;;;;;;;;;;;9.00;99.90;;;;;;5068663;28;19922;-81
2022/10/17 02:51:34;;;;;;;;;;;9.00;99.90;;;;;;5064538;28;19921;-80
2022/10/17 02:54:07;;;;;;;;;;;8.90;99.90;;;;;;5064448;28;19983;-81
2022/10/17 02:56:38;;;;;;;;;;;9.10;99.90;;;;;;5049121;28;20158;-80
2022/10/17 02:59:04;;;;;;;;;;;9.10;99.90;;;;;;5064086;28;20381;-81
2022/10/17 03:01:30;;;;;;;;;;;9.10;99.90;;;;;;5060630;28;19927;-80
2022/10/17 03:04:09;;;;;;;;;;;9.00;99.90;;;;;;5064758;28;20019;-80
2022/10/17 03:06:41;;;;;;;;;;;9.00;99.90;;;;;;5064884;28;19917;-81
2022/10/17 03:09:08;;;;;;;;;;;8.90;99.90;;;;;;5067751;28;19916;-81
2022/10/17 03:11:34;;;;;;;;;;;8.90;99.90;;;;;;5061874;28;20359;-81
2022/10/17 03:13:59;;;;;;;;;;;8.80;99.90;;;;;;5065141;28;19908;-81
2022/10/17 03:16:25;;;;;;;;;;;8.70;99.90;;;;;;5043538;28;19967;-81
2022/10/17 03:18:50;;;;;;;;;;;8.80;99.90;;;;;;5068373;28;19916;-80
2022/10/17 03:21:16;;;;;;;;;;;8.80;99.90;;;;;;5061689;28;19932;-81
2022/10/17 03:23:41;;;;;;;;;;;8.70;99.90;;;;;;5041072;28;19916;-81
2022/10/17 03:26:07;;;;;;;;;;;8.60;99.90;;;;;;5067498;28;19974;-81
2022/10/17 03:28:33;;;;;;;;;;;8.70;99.90;;;;;;5065556;28;20011;-80
2022/10/17 03:30:58;;;;;;;;;;;8.60;99.90;;;;;;5057875;28;20378;-81
2022/10/17 03:33:24;;;;;;;;;;;8.60;99.90;;;;;;5066650;28;19924;-81
2022/10/17 03:35:49;;;;;;;;;;;8.50;99.90;;;;;;5069661;28;20371;-81
2022/10/17 03:38:15;;;;;;;;;;;8.50;99.90;;;;;;5061206;28;20001;-81
2022/10/17 03:40:40;;;;;;;;;;;8.60;99.90;;;;;;5044765;28;19931;-81
2022/10/17 03:43:06;;;;;;;;;;;8.60;99.90;;;;;;5068717;28;19964;-81
2022/10/17 03:45:31;;;;;;;;;;;8.50;99.90;;;;;;5064899;28;20319;-81
2022/10/17 03:47:58;;;;;;;;;;;8.60;99.90;;;;;;5058699;28;19925;-81
2022/10/17 03:50:23;;;;;;;;;;;8.70;99.90;;;;;;5060080;28;19922;-81
2022/10/17 03:52:49;;;;;;;;;;;8.70;99.90;;;;;;5069925;28;19920;-81
2022/10/17 03:55:15;;;;;;;;;;;8.70;99.90;;;;;;5058829;28;19917;-81
2022/10/17 03:57:40;;;;;;;;;;;8.50;99.90;;;;;;5061710;28;20369;-81
2022/10/17 04:00:06;;;;;;;;;;;8.50;99.90;;;;;;5068122;28;19921;-81
2022/10/17 04:02:33;;;;;;;;;;;8.50;99.90;;;;;;5067468;28;19920;-80
2022/10/17 04:04:59;;;;;;;;;;;8.50;99.90;;;;;;5070489;28;20007;-81
2022/10/17 04:07:25;;;;;;;;;;;8.40;99.90;;;;;;5051521;28;20027;-81
2022/10/17 04:09:50;;;;;;;;;;;8.40;99.90;;;;;;5072523;28;19951;-81
2022/10/17 04:12:16;;;;;;;;;;;8.40;99.90;;;;;;5073083;28;19919;-82
2022/10/17 04:14:41;;;;;;;;;;;8.50;99.90;;;;;;5070327;28;19927;-81
2022/10/17 04:17:07;;;;;;;;;;;8.40;99.90;;;;;;5073765;28;19924;-80
2022/10/17 04:19:32;;;;;;;;;;;8.40;99.90;;;;;;5073151;28;19916;-81
2022/10/17 04:21:58;;;;;;;;;;;8.30;99.90;;;;;;5051609;28;20381;-82
2022/10/17 04:24:24;;;;;;;;;;;8.20;99.90;;;;;;5048580;28;19951;-85
2022/10/17 04:26:50;;;;;;;;;;;8.00;99.90;;;;;;5074345;28;19927;-83
2022/10/17 04:29:16;;;;;;;;;;;8.00;99.90;;;;;;5073779;28;19916;-85
2022/10/17 04:31:42;;;;;;;;;;;8.00;99.90;;;;;;5072925;28;20011;-83
2022/10/17 04:34:07;;;;;;;;;;;8.00;99.90;;;;;;5072024;28;20507;-84
2022/10/17 04:36:33;;;;;;;;;;;8.10;99.90;;;;;;5073288;28;19917;-82
2022/10/17 04:39:00;;;;;;;;;;;8.00;99.90;;;;;;5073878;28;19942;-83
2022/10/17 04:41:45;;;;;;;;;;;8.00;99.90;;;;;;5072503;28;19966;-83
2022/10/17 04:44:11;;;;;;;;;;;8.00;99.90;;;;;;5064972;28;20362;-83
2022/10/17 04:46:37;;;;;;;;;;;8.00;99.90;;;;;;5072108;28;19920;-83
2022/10/17 04:49:02;;;;;;;;;;;8.00;99.90;;;;;;5063686;28;20475;-83
2022/10/17 04:51:28;;;;;;;;;;;7.90;99.90;;;;;;5076342;28;19912;-84
2022/10/17 04:53:54;;;;;;;;;;;7.90;99.90;;;;;;5057685;28;20102;-83
2022/10/17 04:56:21;;;;;;;;;;;7.90;99.90;;;;;;5074503;28;20019;-83
2022/10/17 04:58:47;;;;;;;;;;;8.00;99.90;;;;;;5068064;28;19927;-83
2022/10/17 05:01:14;;;;;;;;;;;8.00;99.90;;;;;;5072399;28;19920;-84
2022/10/17 05:03:40;;;;;;;;;;;7.90;99.90;;;;;;5069865;28;19952;-84
2022/10/17 05:06:07;;;;;;;;;;;7.90;99.90;;;;;;5030800;28;19917;-84
2022/10/17 05:08:33;;;;;;;;;;;7.90;99.90;;;;;;5065659;28;19917;-84
2022/10/17 05:10:58;;;;;;;;;;;8.10;99.90;;;;;;5070848;28;19927;-84
2022/10/17 05:13:25;;;;;;;;;;;8.10;99.90;;;;;;5071127;28;19917;-83
2022/10/17 05:15:50;;;;;;;;;;;8.10;99.90;;;;;;5078795;28;20008;-83
2022/10/17 05:18:16;;;;;;;;;;;8.20;99.90;;;;;;5091681;28;19904;-83
2022/10/17 05:20:41;;;;;;;;;;;8.10;99.90;;;;;;5088522;28;19990;-83
2022/10/17 05:23:07;;;;;;;;;;;8.10;99.90;;;;;;5075623;28;19932;-84
2022/10/17 05:25:32;;;;;;;;;;;8.10;99.90;;;;;;5047213;28;19939;-82
2022/10/17 05:27:58;;;;;;;;;;;8.00;99.90;;;;;;5064328;28;19920;-83
2022/10/17 05:30:23;;;;;;;;;;;8.00;99.90;;;;;;5070652;28;19917;-83
2022/10/17 05:32:54;;;;;;;;;;;8.00;99.90;;;;;;5065424;28;19909;-83
2022/10/17 05:35:20;;;;;;;;;;;8.00;99.90;;;;;;5068609;28;19924;-83
2022/10/17 05:37:45;;;;;;;;;;;8.10;99.90;;;;;;5072184;28;19917;-83
2022/10/17 05:40:11;;;;;;;;;;;8.10;99.90;;;;;;5070681;28;20035;-83
2022/10/17 05:42:36;;;;;;;;;;;8.20;99.90;;;;;;5069647;28;19916;-82
2022/10/17 05:45:02;;;;;;;;;;;8.30;99.90;;;;;;5069551;28;19924;-82
2022/10/17 05:47:28;;;;;;;;;;;8.20;99.90;;;;;;5048513;28;19928;-81
2022/10/17 05:49:53;;;;;;;;;;;8.20;99.90;;;;;;5066115;28;20298;-80
2022/10/17 05:52:19;;;;;;;;;;;8.20;99.90;;;;;;5071719;28;19925;-81
2022/10/17 05:54:44;;;;;;;;;;;8.30;99.90;;;;;;5054586;28;20400;-82
2022/10/17 05:57:10;;;;;;;;;;;8.30;99.90;;;;;;5072851;28;19917;-83
2022/10/17 05:59:35;;;;;;;;;;;8.40;99.90;;;;;;5072161;28;19931;-82
2022/10/17 06:02:01;;;;;;;;;;;8.50;99.90;;;;;;5068186;28;19939;-82
2022/10/17 06:04:27;;;;;;;;;;;8.50;99.90;;;;;;5050744;28;20540;-82
2022/10/17 06:06:55;;;;;;;;;;;8.50;99.90;;;;;;5072090;28;20012;-83
2022/10/17 06:09:22;;;;;;;;;;;8.40;99.90;;;;;;5070169;28;20366;-81
2022/10/17 06:11:48;;;;;;;;;;;8.40;99.90;;;;;;5066230;28;19916;-82
2022/10/17 06:14:13;;;;;;;;;;;8.40;99.90;;;;;;5070549;28;19927;-80
2022/10/17 06:16:39;;;;;;;;;;;8.50;99.90;;;;;;5069909;28;19920;-81
2022/10/17 06:19:04;;;;;;;;;;;8.60;99.90;;;;;;5069541;28;20453;-80
2022/10/17 06:21:33;;;;;;;;;;;8.60;99.90;;;;;;5068962;28;20034;-80
2022/10/17 06:23:58;;;;;;;;;;;8.70;99.90;;;;;;5048429;28;19917;-81
2022/10/17 06:26:24;;;;;;;;;;;8.90;99.90;;;;;;5047951;28;19935;-81
2022/10/17 06:28:49;;;;;;;;;;;8.90;99.90;;;;;;5068919;28;19924;-80
2022/10/17 06:31:15;;;;;;;;;;;8.90;99.90;;;;;;5068377;28;20344;-81
2022/10/17 06:33:41;;;;;;;;;;;8.90;99.90;;;;;;5068125;28;19924;-81
2022/10/17 06:36:10;;;;;;;;;;;8.90;99.90;;;;;;5069389;28;19916;-81
2022/10/17 06:38:35;;;;;;;;;;;8.90;99.90;;;;;;5048066;28;19956;-80
2022/10/17 06:41:02;;;;;;;;;;;9.10;99.90;;;;;;5068634;28;19967;-81
2022/10/17 06:43:27;;;;;;;;;;;9.10;99.90;;;;;;5062848;28;20004;-80
2022/10/17 06:45:53;;;;;;;;;;;9.10;99.90;;;;;;5068758;28;20303;-81
2022/10/17 06:48:18;;;;;;;;;;;9.20;99.90;;;;;;5068690;28;19964;-81
2022/10/17 06:50:44;;;;;;;;;;;9.20;99.90;;;;;;5068705;28;20337;-80
2022/10/17 06:53:09;;;;;;;;;;;9.20;99.90;;;;;;5068567;28;20500;-80
2022/10/17 06:55:35;;;;;;;;;;;9.30;99.90;;;;;;5068905;28;19966;-80
2022/10/17 06:58:00;;;;;;;;;;;9.40;99.90;;;;;;5050351;28;19921;-80
2022/10/17 07:00:26;;;;;;;;;;;9.50;99.90;;;;;;5065970;28;19925;-81
2022/10/17 07:02:51;;;;;;;;;;;9.60;99.90;;;;;;5067835;28;20046;-81
2022/10/17 07:05:18;;;;;;;;;;;9.70;99.90;;;;;;5068311;28;19921;-80
2022/10/17 07:07:44;;;;;;;;;;;9.80;99.90;;;;;;5066969;28;19995;-80
2022/10/17 07:10:09;;;;;;;;;;;10.10;99.90;;;;;;5062973;28;20004;-79
2022/10/17 07:12:35;;;;;;;;;;;10.20;99.90;;;;;;5065270;28;19966;-80
2022/10/17 07:15:03;;;;;;;;;;;10.30;99.90;;;;;;5064736;28;19916;-79
2022/10/17 07:17:28;;;;;;;;;;;10.40;99.90;;;;;;5064546;28;19924;-80
2022/10/17 07:19:54;;;;;;;;;;;10.50;99.90;;;;;;5068509;28;19920;-79
2022/10/17 07:22:19;;;;;;;;;;;10.60;99.90;;;;;;5068158;28;19916;-80
2022/10/17 07:24:45;;;;;;;;;;;10.60;99.90;;;;;;5067682;28;19920;-80
2022/10/17 07:27:11;;;;;;;;;;;10.80;99.90;;;;;;5066566;28;19917;-79
2022/10/17 07:29:37;;;;;;;;;;;10.80;99.90;;;;;;5067833;28;19917;-80
2022/10/17 07:32:05;;;;;;;;;;;10.80;99.90;;;;;;5049588;28;20487;-80
2022/10/17 07:34:31;;;;;;;;;;;10.90;99.90;;;;;;5066483;28;19943;-80
2022/10/17 07:36:57;;;;;;;;;;;11.00;99.90;;;;;;5066148;28;19925;-80
2022/10/17 07:39:22;;;;;;;;;;;11.00;99.90;;;;;;5067135;28;20624;-80
2022/10/17 07:41:49;;;;;;;;;;;11.10;99.90;;;;;;5066823;28;20398;-82
2022/10/17 07:44:15;;;;;;;;;;;11.20;99.90;;;;;;5069852;28;20011;-80
2022/10/17 07:46:40;;;;;;;;;;;11.30;99.90;;;;;;5071108;28;20007;-80
2022/10/17 07:49:06;;;;;;;;;;;11.50;99.90;;;;;;5071496;28;20378;-80
2022/10/17 07:51:32;;;;;;;;;;;11.50;99.90;;;;;;5071572;28;20262;-80
2022/10/17 07:53:58;;;;;;;;;;;11.60;99.90;;;;;;5070731;28;19954;-80
2022/10/17 07:56:24;;;;;;;;;;;11.70;99.90;;;;;;5070371;28;19943;-80
2022/10/17 07:58:50;;;;;;;;;;;11.90;99.90;;;;;;5070895;28;20413;-80
2022/10/17 08:01:16;;;;;;;;;;;12.00;99.90;;;;;;5069836;28;19924;-80
2022/10/17 08:03:45;;;;;;;;;;;12.10;99.90;;;;;;5070791;28;20505;-79
2022/10/17 08:06:11;;;;;;;;;;;12.30;99.90;;;;;;5055049;28;20263;-81
2022/10/17 08:08:37;;;;;;;;;;;12.50;99.90;;;;;;5083395;28;19916;-81
2022/10/17 08:11:04;;;;;;;;;;;12.50;99.90;;;;;;5086461;28;20318;-82
2022/10/17 08:13:30;;;;;;;;;;;12.60;99.90;;;;;;5090664;28;19912;-80
2022/10/17 08:16:02;;;;;;;;;;;12.70;99.90;;;;;;5073507;28;20259;-81
2022/10/17 08:18:28;;;;;;;;;;;12.80;99.90;;;;;;5068564;28;19916;-81
2022/10/17 08:20:54;;;;;;;;;;;12.90;99.90;;;;;;5072081;28;20027;-81
2022/10/17 08:23:19;;;;;;;;;;;13.00;99.90;;;;;;5071432;28;19917;-81
2022/10/17 08:25:45;;;;;;;;;;;13.10;99.90;;;;;;5071478;28;20375;-81
2022/10/17 08:28:10;;;;;;;;;;;13.30;99.90;;;;;;5071199;28;19916;-81
2022/10/17 08:30:36;;;;;;;;;;;13.40;99.90;;;;;;5052158;28;19920;-81
2022/10/17 08:33:02;;;;;;;;;;;13.40;99.90;;;;;;5037267;28;19937;-81
2022/10/17 08:35:27;;;;;;;;;;;13.50;99.90;;;;;;5052031;28;19924;-81
2022/10/17 08:37:53;;;;;;;;;;;13.70;99.90;;;;;;5070389;28;20004;-80
2022/10/17 08:40:21;;;;;;;;;;;13.80;99.90;;;;;;5069749;28;19920;-81
2022/10/17 08:42:52;;;;;;;;;;;13.90;99.90;;;;;;5070142;28;20738;-80
2022/10/17 08:45:27;;;;;;;;;;;14.10;99.90;;;;;;5068798;28;19928;-81
2022/10/17 08:48:00;;;;;;;;;;;14.20;97.80;;;;;;5070523;28;19928;-80
2022/10/17 08:50:28;;;;;;;;;;;14.40;97.80;;;;;;5069876;28;19916;-80
2022/10/17 08:53:01;;;;;;;;;;;14.50;97.40;;;;;;5064960;28;19967;-80
2022/10/17 08:55:38;;;;;;;;;;;14.70;98.10;;;;;;5068931;28;20396;-80
2022/10/17 08:58:14;;;;;;;;;;;14.90;94.60;;;;;;5069842;28;20030;-80
2022/10/17 09:00:45;;;;;;;;;;;15.10;93.20;;;;;;5066958;28;19930;-80
2022/10/17 09:03:15;;;;;;;;;;;15.20;92.30;;;;;;5051530;28;20393;-80
2022/10/17 09:05:55;;;;;;;;;;;15.30;91.70;;;;;;5068212;28;19944;-81
2022/10/17 09:08:30;;;;;;;;;;;15.40;91.80;;;;;;5068403;28;19978;-82
2022/10/17 09:11:17;;;;;;;;;;;15.60;91.90;;;;;;5069119;28;19917;-81
2022/10/17 09:14:08;;;;;;;;;;;15.90;91.20;;;;;;5069598;28;19916;-81
2022/10/17 09:16:52;;;;;;;;;;;16.00;90.50;;;;;;5069597;28;19923;-81
2022/10/17 09:19:20;;;;;;;;;;;16.10;91.40;;;;;;5069342;28;19916;-80
2022/10/17 09:21:58;;;;;;;;;;;16.20;90.80;;;;;;5070564;28;19931;-81
2022/10/17 09:24:41;;;;;;;;;;;16.30;90.80;;;;;;5069497;28;19920;-80
2022/10/17 09:27:33;;;;;;;;;;;16.50;89.60;;;;;;5069646;28;20006;-81
2022/10/17 09:30:17;;;;;;;;;;;16.60;88.90;;;;;;5062913;28;20356;-82
2022/10/17 09:32:43;;;;;;;;;;;16.70;88.60;;;;;;5067922;28;19916;-79
2022/10/17 09:35:14;;;;;;;;;;;16.90;88.50;;;;;;5070185;28;20001;-80
2022/10/17 09:37:40;;;;;;;;;;;17.10;87.50;;;;;;5054561;28;19928;-82
2022/10/17 09:40:11;;;;;;;;;;;17.40;87.10;;;;;;5064907;28;20334;-82
2022/10/17 09:42:37;;;;;;;;;;;17.50;86.20;;;;;;5067173;28;20005;-83
2022/10/17 09:45:23;;;;;;;;;;;17.60;85.30;;;;;;5069879;28;19921;-80
2022/10/17 09:47:54;;;;;;;;;;;17.60;83.50;;;;;;5068773;28;19921;-82
2022/10/17 09:50:22;;;;;;;;;;;17.70;87.20;;;;;;5049990;28;20019;-81
2022/10/17 09:52:49;;;;;;;;;;;17.80;83.20;;;;;;5050820;28;20424;-82
2022/10/17 09:55:17;;;;;;;;;;;17.80;82.80;;;;;;5069658;28;19916;-81
2022/10/17 09:58:00;;;;;;;;;;;17.80;80.90;;;;;;5051281;28;20268;-81
2022/10/17 10:00:28;;;;;;;;;;;17.90;80.80;;;;;;5068510;28;19964;-82
2022/10/17 10:03:09;;;;;;;;;;;18.00;81.20;;;;;;5068277;28;20395;-81
2022/10/17 10:05:35;;;;;;;;;;;17.90;79.40;;;;;;5067651;28;19916;-81
2022/10/17 10:08:02;;;;;;;;;;;18.10;79.30;;;;;;5073574;28;19939;-81
2022/10/17 10:10:29;;;;;;;;;;;18.30;79.40;;;;;;5054224;28;19916;-81
2022/10/17 10:13:04;;;;;;;;;;;18.30;80.20;;;;;;5066084;28;19921;-81
2022/10/17 10:15:32;;;;;;;;;;;18.30;79.10;;;;;;5067317;28;19916;-81
2022/10/17 10:17:57;;;;;;;;;;;18.40;78.50;;;;;;5048187;28;20226;-81
2022/10/17 10:20:23;;;;;;;;;;;18.60;78.80;;;;;;5068584;28;19924;-81
2022/10/17 10:23:09;;;;;;;;;;;18.70;81.60;;;;;;5068310;28;19951;-81
2022/10/17 10:25:35;;;;;;;;;;;18.90;77.70;;;;;;5065132;28;19916;-81
2022/10/17 10:28:01;;;;;;;;;;;18.90;73.40;;;;;;5068827;28;19963;-81
2022/10/17 10:30:28;;;;;;;;;;;18.90;75.30;;;;;;5048569;28;19925;-82
2022/10/17 10:32:55;;;;;;;;;;;18.90;74.30;;;;;;5068099;28;19912;-82
2022/10/17 10:35:28;;;;;;;;;;;19.00;73.30;;;;;;5066912;28;20045;-82
2022/10/17 10:37:55;;;;;;;;;;;19.00;75.80;;;;;;5068700;28;20873;-83
2022/10/17 10:40:29;;;;;;;;;;;19.00;74.40;;;;;;5068705;28;20437;-82
2022/10/17 10:42:56;;;;;;;;;;;19.10;75.20;;;;;;5049979;28;19924;-82
2022/10/17 10:45:23;;;;;;;;;;;19.00;74.50;;;;;;5067955;28;19926;-82
2022/10/17 10:47:59;;;;;;;;;;;18.90;74.50;;;;;;5058394;28;20497;-82
2022/10/17 10:50:39;;;;;;;;;;;19.10;73.40;;;;;;5040781;28;19932;-82
2022/10/17 10:53:24;;;;;;;;;;;19.30;73.60;;;;;;5044320;28;19980;-83
2022/10/17 10:56:01;;;;;;;;;;;19.20;74.00;;;;;;5079732;28;19916;-81
2022/10/17 10:58:36;;;;;;;;;;;19.20;71.40;;;;;;5054662;28;19925;-82
2022/10/17 11:01:04;;;;;;;;;;;19.10;71.40;;;;;;5059366;28;19928;-82
2022/10/17 11:03:34;;;;;;;;;;;19.30;72.10;;;;;;5044664;28;20003;-82
2022/10/17 11:06:24;;;;;;;;;;;19.30;71.80;;;;;;5051187;28;19917;-82
2022/10/17 11:09:14;;;;;;;;;;;19.50;72.10;;;;;;5046382;28;20378;-82
2022/10/17 11:11:49;;;;;;;;;;;19.50;72.30;;;;;;5049516;28;20417;-82
2022/10/17 11:14:14;;;;;;;;;;;19.70;73.10;;;;;;5048530;28;20280;-81
2022/10/17 11:16:43;;;;;;;;;;;19.60;70.10;;;;;;5055664;28;19931;-81
2022/10/17 11:19:27;;;;;;;;;;;19.80;71.70;;;;;;5057078;28;20629;-80
2022/10/17 11:21:57;;;;;;;;;;;19.70;70.40;;;;;;5050938;28;20480;-81
2022/10/17 11:24:24;;;;;;;;;;;19.80;71.80;;;;;;5055571;28;19964;-81
2022/10/17 11:26:55;;;;;;;;;;;19.90;72.90;;;;;;5052553;28;19920;-81
2022/10/17 11:29:23;;;;;;;;;;;19.90;72.70;;;;;;5052020;28;19924;-81
2022/10/17 11:31:51;;;;;;;;;;;19.90;70.00;;;;;;5057680;28;19921;-82
2022/10/17 11:34:23;;;;;;;;;;;20.10;71.00;;;;;;5024412;28;19921;-81
2022/10/17 11:36:51;;;;;;;;;;;20.10;71.50;;;;;;5049948;28;20436;-81
2022/10/17 11:39:25;;;;;;;;;;;20.30;71.30;;;;;;5056829;28;19920;-81
2022/10/17 11:42:11;;;;;;;;;;;20.30;71.80;;;;;;5056309;28;19947;-81
2022/10/17 11:44:38;;;;;;;;;;;20.40;71.80;;;;;;5048438;28;19916;-81
2022/10/17 11:47:10;;;;;;;;;;;20.70;72.00;;;;;;5040008;28;19924;-82
2022/10/17 11:49:37;;;;;;;;;;;20.60;68.80;;;;;;5045599;28;20382;-81
2022/10/17 11:52:03;;;;;;;;;;;20.70;70.30;;;;;;5053412;28;19920;-82
2022/10/17 11:54:31;;;;;;;;;;;20.70;70.10;;;;;;5055627;28;19920;-81
2022/10/17 11:57:22;;;;;;;;;;;20.80;69.60;;;;;;5052270;28;19921;-83
2022/10/17 12:00:00;;;;;;;;;;;20.70;69.30;;;;;;5026638;28;20019;-81
2022/10/17 12:02:26;;;;;;;;;;;20.80;69.30;;;;;;5060314;28;20898;-81
2022/10/17 12:05:05;;;;;;;;;;;20.70;69.60;;;;;;5039067;28;20394;-80
2022/10/17 12:07:41;;;;;;;;;;;20.70;69.00;;;;;;5050977;28;19925;-80
2022/10/17 12:10:19;;;;;;;;;;;20.70;68.00;;;;;;5056769;28;19924;-81
2022/10/17 12:12:46;;;;;;;;;;;20.80;68.70;;;;;;5055877;28;19939;-80
2022/10/17 12:15:12;;;;;;;;;;;20.80;70.50;;;;;;5024285;28;19925;-82
2022/10/17 12:17:42;;;;;;;;;;;20.80;68.60;;;;;;5059404;28;19970;-83
2022/10/17 12:20:14;;;;;;;;;;;20.90;68.70;;;;;;5036489;28;19917;-82
2022/10/17 12:23:02;;;;;;;;;;;21.10;67.50;;;;;;5052398;28;19983;-83
2022/10/17 12:25:29;;;;;;;;;;;21.30;66.70;;;;;;5053942;28;19917;-83
2022/10/17 12:28:21;;;;;;;;;;;21.50;66.70;;;;;;5054812;28;19913;-83
2022/10/17 12:30:49;;;;;;;;;;;21.60;65.80;;;;;;5055894;28;20036;-82
2022/10/17 12:33:16;;;;;;;;;;;21.50;64.90;;;;;;5063035;28;19917;-82
2022/10/17 12:35:41;;;;;;;;;;;21.40;64.20;;;;;;5058623;28;19975;-82
2022/10/17 12:38:16;;;;;;;;;;;21.40;64.80;;;;;;5050349;28;20508;-82
2022/10/17 12:40:42;;;;;;;;;;;21.60;65.30;;;;;;5046266;28;19959;-83
2022/10/17 12:43:10;;;;;;;;;;;21.70;65.80;;;;;;5052011;28;19921;-82
2022/10/17 12:45:43;;;;;;;;;;;21.90;65.80;;;;;;5058902;28;20704;-81
2022/10/17 12:48:09;;;;;;;;;;;22.00;65.00;;;;;;5068464;28;19916;-82
2022/10/17 12:50:54;;;;;;;;;;;22.00;64.90;;;;;;5069881;28;19916;-86
2022/10/17 12:53:22;;;;;;;;;;;22.00;66.00;;;;;;5069786;28;20267;-81
2022/10/17 12:55:50;;;;;;;;;;;22.20;66.00;;;;;;5069664;28;20015;-81
2022/10/17 12:58:16;;;;;;;;;;;22.10;65.30;;;;;;5051143;28;20006;-81
2022/10/17 13:00:41;;;;;;;;;;;21.90;65.40;;;;;;5050085;28;20470;-81
2022/10/17 13:03:17;;;;;;;;;;;22.00;62.00;;;;;;5072000;28;19913;-80
2022/10/17 13:05:46;;;;;;;;;;;22.10;63.30;;;;;;5070186;28;19948;-80
2022/10/17 13:08:20;;;;;;;;;;;22.00;60.80;;;;;;5059422;28;19916;-80
2022/10/17 13:10:47;;;;;;;;;;;22.00;61.60;;;;;;5068447;28;19966;-80
2022/10/17 13:16:28;;;;;;;;;;;22.10;64.30;;;;;;5082310;22;20289;-85
2022/10/17 13:18:53;;;;;;;;;;;22.30;63.00;;;;;;5011017;28;19997;-86
2022/10/17 13:21:19;;;;;;;;;;;22.40;63.20;;;;;;5010924;28;20012;-85
2022/10/17 13:23:46;;;;;;;;;;;22.50;63.30;;;;;;5014516;28;19917;-85
2022/10/17 13:26:12;;;;;;;;;;;22.40;63.50;;;;;;5033897;28;19972;-84
2022/10/17 13:28:37;;;;;;;;;;;22.30;62.80;;;;;;5033106;28;20406;-84
2022/10/17 13:31:03;;;;;;;;;;;22.30;62.50;;;;;;5016212;28;20004;-85
2022/10/17 13:33:28;;;;;;;;;;;22.30;62.50;;;;;;4996728;28;19963;-84
2022/10/17 13:35:54;;;;;;;;;;;22.30;64.90;;;;;;5021384;28;19913;-84
2022/10/17 13:38:23;;;;;;;;;;;22.30;64.60;;;;;;5014202;28;19913;-85
2022/10/17 13:40:48;;;;;;;;;;;22.40;63.60;;;;;;5033543;28;19944;-84
2022/10/17 13:43:15;;;;;;;;;;;22.30;63.70;;;;;;5015540;28;19917;-84
2022/10/17 13:45:45;;;;;;;;;;;22.40;65.20;;;;;;5033076;28;19917;-85
2022/10/17 13:48:18;;;;;;;;;;;22.50;64.30;;;;;;5028218;28;19923;-85
2022/10/17 13:50:45;;;;;;;;;;;22.50;63.30;;;;;;5016700;28;19921;-85
2022/10/17 13:53:11;;;;;;;;;;;22.60;64.00;;;;;;5033595;28;20403;-85
2022/10/17 13:55:37;;;;;;;;;;;22.70;65.00;;;;;;5029987;28;19932;-85
2022/10/17 13:58:13;;;;;;;;;;;22.60;64.40;;;;;;5014124;28;19913;-85
2022/10/17 14:00:38;;;;;;;;;;;22.60;64.30;;;;;;5033237;28;19922;-85
2022/10/17 14:03:04;;;;;;;;;;;22.50;64.30;;;;;;5014950;28;19944;-85
2022/10/17 14:05:31;;;;;;;;;;;22.60;64.70;;;;;;5033270;28;19924;-85
2022/10/17 14:07:58;;;;;;;;;;;22.80;64.30;;;;;;5015581;28;19917;-85
2022/10/17 14:10:25;;;;;;;;;;;22.90;63.70;;;;;;5032437;28;19966;-85
2022/10/17 14:12:51;;;;;;;;;;;23.20;63.40;;;;;;5032833;28;19962;-85
2022/10/17 14:15:17;;;;;;;;;;;23.10;62.30;;;;;;5033113;28;19927;-85
2022/10/17 14:17:44;;;;;;;;;;;23.30;62.50;;;;;;5032306;28;20004;-85
2022/10/17 14:20:20;;;;;;;;;;;23.30;61.60;;;;;;5013970;28;19917;-85
2022/10/17 14:22:45;;;;;;;;;;;23.40;60.50;;;;;;5024107;28;19923;-85
2022/10/17 14:25:26;;;;;;;;;;;23.40;61.70;;;;;;5021889;28;19995;-90
2022/10/17 14:28:02;;;;;;;;;;;23.60;60.30;;;;;;5031461;28;20613;-85
2022/10/17 14:30:32;;;;;;;;;;;23.80;59.00;;;;;;5011499;28;19913;-85
2022/10/17 14:33:00;;;;;;;;;;;24.10;57.70;;;;;;5024686;28;19992;-85
2022/10/17 14:35:26;;;;;;;;;;;24.10;57.20;;;;;;4998548;28;19917;-85
2022/10/17 14:37:52;;;;;;;;;;;24.60;55.80;;;;;;5017078;28;20687;-85